Time;durP1;ratioP1;P1;durP2;ratioP2;P2;SDS_P1;SDS_P2;PMS_P1;PMS_P2;Temp;Humidity;BMP_temperature;BMP_pressure;BME280_temperature;BME280_humidity;BME280_pressure;Samples;Min_cycle;Max_cycle;Signal;HPM_P1;HPM_P2
2023/12/11 00:02:25;;;;;;;5.53;1.55;;;11.20;99.90;;;;;;5125805;28;20051;-68
2023/12/11 00:04:50;;;;;;;1.95;1.30;;;8.70;99.90;;;;;;5128305;27;20052;-67
2023/12/11 00:07:16;;;;;;;0.32;0.32;;;6.30;99.90;;;;;;5127493;27;20054;-67
2023/12/11 00:09:42;;;;;;;0.20;0.20;;;6.20;99.90;;;;;;5128390;27;20052;-67
2023/12/11 00:12:08;;;;;;;1.23;1.20;;;6.10;99.90;;;;;;5127434;27;20031;-66
2023/12/11 00:14:33;;;;;;;0.30;0.30;;;10.00;99.90;;;;;;5116737;27;20047;-66
2023/12/11 00:16:59;;;;;;;27.08;1.02;;;8.80;99.90;;;;;;5112143;28;20475;-67
2023/12/11 00:19:25;;;;;;;0.47;0.47;;;5.80;99.90;;;;;;5114308;28;20044;-68
2023/12/11 00:21:51;;;;;;;;;;;10.00;99.90;;;;;;5094943;28;20036;-66
2023/12/11 00:24:17;;;;;;;2.65;2.22;;;9.90;99.90;;;;;;5094216;28;20000;-68
2023/12/11 00:26:43;;;;;;;8.77;1.23;;;7.70;99.90;;;;;;5093995;28;20394;-67
2023/12/11 00:29:09;;;;;;;3.42;1.75;;;9.10;99.90;;;;;;5094032;28;20039;-66
2023/12/11 00:31:35;;;;;;;0.15;0.15;;;11.00;99.90;;;;;;5093901;28;20040;-67
2023/12/11 00:34:01;;;;;;;1.40;0.68;;;8.00;99.90;;;;;;5093975;28;20545;-67
2023/12/11 00:36:27;;;;;;;1.63;1.52;;;6.10;99.90;;;;;;5112205;28;20070;-67
2023/12/11 00:38:53;;;;;;;39.22;3.00;;;5.80;99.90;;;;;;5100534;28;20449;-66
2023/12/11 00:41:18;;;;;;;0.47;0.47;;;6.30;99.90;;;;;;5111846;28;20040;-67
2023/12/11 00:43:44;;;;;;;3.22;1.67;;;10.80;99.90;;;;;;5113557;28;20043;-67
2023/12/11 00:46:28;;;;;;;0.52;0.45;;;6.90;99.90;;;;;;5112321;28;20088;-66
2023/12/11 00:48:54;;;;;;;0.13;0.13;;;8.40;99.90;;;;;;5112092;28;20706;-66
2023/12/11 00:51:20;;;;;;;0.40;0.40;;;8.60;99.90;;;;;;5112889;28;20050;-68
2023/12/11 00:53:47;;;;;;;1.95;1.55;;;10.30;99.90;;;;;;5111983;28;20491;-66
2023/12/11 00:56:13;;;;;;;0.65;0.65;;;7.50;99.90;;;;;;5112689;27;20048;-67
2023/12/11 00:58:39;;;;;;;;;;;10.70;99.90;;;;;;5112306;28;20054;-66
2023/12/11 01:01:06;;;;;;;2.50;0.57;;;10.70;99.90;;;;;;5112892;28;19923;-67
2023/12/11 01:03:33;;;;;;;4.00;0.63;;;10.50;99.90;;;;;;5110744;28;20055;-66
2023/12/11 01:05:59;;;;;;;3.13;0.30;;;10.90;99.90;;;;;;5112765;28;20047;-66
2023/12/11 01:08:27;;;;;;;2.63;0.82;;;11.20;99.90;;;;;;5110582;28;20039;-66
2023/12/11 01:10:54;;;;;;;4.97;2.70;;;6.90;99.90;;;;;;5112128;27;20059;-66
2023/12/11 01:13:20;;;;;;;4.95;1.95;;;8.80;99.90;;;;;;5110163;28;20183;-66
2023/12/11 01:15:46;;;;;;;1.40;0.90;;;6.90;99.90;;;;;;5111793;28;20051;-67
2023/12/11 01:18:12;;;;;;;0.32;0.32;;;9.00;99.90;;;;;;5109660;28;20154;-66
2023/12/11 01:20:38;;;;;;;0.10;0.10;;;10.80;99.90;;;;;;5111722;28;20053;-66
2023/12/11 01:23:04;;;;;;;2.03;1.85;;;7.10;99.90;;;;;;5109417;28;20044;-66
2023/12/11 01:25:30;;;;;;;7.97;0.77;;;7.80;99.90;;;;;;5110153;28;20105;-67
2023/12/11 01:27:56;;;;;;;9.23;1.45;;;11.00;99.90;;;;;;5109103;27;20462;-66
2023/12/11 01:30:21;;;;;;;0.20;0.20;;;7.50;99.90;;;;;;5111342;28;20513;-67
2023/12/11 01:32:47;;;;;;;11.40;2.55;;;9.30;99.90;;;;;;5109600;28;20044;-66
2023/12/11 01:35:13;;;;;;;0.45;0.45;;;10.40;99.90;;;;;;5111482;28;20061;-67
2023/12/11 01:37:39;;;;;;;;;;;10.90;99.90;;;;;;5097220;28;20508;-67
2023/12/11 01:40:07;;;;;;;0.55;0.30;;;8.20;99.90;;;;;;5092533;28;19930;-68
2023/12/11 01:42:33;;;;;;;4.90;2.45;;;6.80;99.90;;;;;;5092768;28;20040;-67
2023/12/11 01:44:59;;;;;;;1.05;1.05;;;9.60;99.90;;;;;;5092759;28;20048;-67
2023/12/11 01:47:25;;;;;;;3.78;0.98;;;10.80;99.90;;;;;;5092464;28;20060;-67
2023/12/11 01:49:51;;;;;;;2.45;1.63;;;8.90;99.90;;;;;;5092859;28;20051;-68
2023/12/11 01:52:17;;;;;;;2.90;0.75;;;6.90;99.90;;;;;;5092954;28;20080;-67
2023/12/11 01:54:44;;;;;;;4.95;1.95;;;8.60;99.90;;;;;;5092725;28;20083;-67
2023/12/11 01:57:10;;;;;;;17.35;1.10;;;11.20;99.90;;;;;;5093652;28;20051;-66
2023/12/11 01:59:37;;;;;;;20.77;1.58;;;7.00;99.90;;;;;;5092694;28;20048;-69
2023/12/11 02:02:03;;;;;;;0.40;0.40;;;10.10;99.90;;;;;;5092562;28;20095;-66
2023/12/11 02:04:29;;;;;;;;;;;6.20;99.90;;;;;;5092984;28;20055;-66
2023/12/11 02:06:55;;;;;;;2.50;1.75;;;6.10;99.90;;;;;;5093148;28;19928;-66
2023/12/11 02:09:21;;;;;;;1.05;0.47;;;6.80;99.90;;;;;;5092924;28;20126;-67
2023/12/11 02:11:47;;;;;;;2.35;1.05;;;6.70;99.90;;;;;;5093733;28;20613;-66
2023/12/11 02:14:12;;;;;;;0.63;0.63;;;10.60;99.90;;;;;;5092909;28;20051;-66
2023/12/11 02:16:38;;;;;;;21.17;0.77;;;6.00;99.90;;;;;;5093226;28;20372;-67
2023/12/11 02:19:04;;;;;;;0.50;0.50;;;11.80;99.90;;;;;;5092323;28;20044;-67
2023/12/11 02:21:30;;;;;;;1.00;0.82;;;5.80;99.90;;;;;;5092774;28;20152;-68
2023/12/11 02:24:22;;;;;;;0.30;0.30;;;7.90;99.90;;;;;;5092299;28;20063;-68
2023/12/11 02:26:48;;;;;;;3.22;0.40;;;11.80;99.90;;;;;;5092834;28;20048;-68
2023/12/11 02:29:14;;;;;;;;;;;6.50;99.90;;;;;;5093347;28;20093;-67
2023/12/11 02:31:40;;;;;;;0.88;0.57;;;6.40;99.90;;;;;;5092897;28;19920;-67
2023/12/11 02:34:07;;;;;;;4.40;1.17;;;6.10;99.90;;;;;;5092180;28;20044;-68
2023/12/11 02:36:33;;;;;;;1.27;1.17;;;5.40;99.90;;;;;;5104692;28;20064;-68
2023/12/11 02:38:59;;;;;;;0.22;0.22;;;10.70;99.90;;;;;;5091494;28;20059;-67
2023/12/11 02:41:25;;;;;;;0.60;0.60;;;5.90;99.90;;;;;;5090989;28;20071;-67
2023/12/11 02:43:50;;;;;;;4.28;2.10;;;6.60;99.90;;;;;;5091706;28;20496;-67
2023/12/11 02:46:16;;;;;;;0.98;0.60;;;5.90;99.90;;;;;;5091335;28;20055;-67
2023/12/11 02:48:42;;;;;;;3.35;1.38;;;6.30;99.90;;;;;;5091993;28;20602;-67
2023/12/11 02:51:08;;;;;;;0.85;0.85;;;11.40;99.90;;;;;;5092020;28;20044;-66
2023/12/11 02:53:33;;;;;;;7.35;1.40;;;7.00;99.90;;;;;;5091168;28;20376;-66
2023/12/11 02:55:59;;;;;;;1.10;0.63;;;11.20;99.90;;;;;;5091397;28;20109;-67
2023/12/11 02:58:25;;;;;;;4.45;1.23;;;5.10;99.90;;;;;;5091252;28;20043;-66
2023/12/11 03:00:51;;;;;;;0.52;0.52;;;6.80;99.90;;;;;;5091285;28;20047;-67
2023/12/11 03:03:16;;;;;;;0.25;0.25;;;6.20;99.90;;;;;;5091025;28;20066;-71
2023/12/11 03:05:42;;;;;;;0.95;0.20;;;10.50;99.90;;;;;;5090888;28;20259;-68
2023/12/11 03:08:08;;;;;;;8.90;2.47;;;9.70;99.90;;;;;;5091432;28;20097;-67
2023/12/11 03:10:33;;;;;;;0.20;0.20;;;11.60;99.90;;;;;;5091400;28;20079;-67
2023/12/11 03:12:59;;;;;;;9.35;1.35;;;7.90;99.90;;;;;;5091162;28;20047;-68
2023/12/11 03:15:25;;;;;;;2.35;0.95;;;7.40;99.90;;;;;;5090525;28;20044;-67
2023/12/11 03:17:50;;;;;;;2.30;1.35;;;7.60;99.90;;;;;;5090997;28;20055;-67
2023/12/11 03:20:16;;;;;;;0.30;0.30;;;11.50;99.90;;;;;;5103774;28;20126;-67
2023/12/11 03:22:42;;;;;;;0.63;0.63;;;8.90;99.90;;;;;;5090731;28;20045;-67
2023/12/11 03:25:08;;;;;;;0.52;0.52;;;6.30;99.90;;;;;;5091039;28;20055;-65
2023/12/11 03:27:34;;;;;;;4.20;1.70;;;10.70;99.90;;;;;;5090888;28;20048;-66
2023/12/11 03:29:59;;;;;;;2.50;0.70;;;11.40;99.90;;;;;;5091128;28;20464;-65
2023/12/11 03:32:25;;;;;;;0.20;0.20;;;11.90;99.90;;;;;;5091229;28;20040;-66
2023/12/11 03:34:51;;;;;;;6.75;2.55;;;11.80;99.90;;;;;;5096677;28;20043;-66
2023/12/11 03:37:17;;;;;;;0.63;0.63;;;7.20;99.90;;;;;;5110863;28;20495;-66
2023/12/11 03:39:42;;;;;;;2.55;0.40;;;7.70;99.90;;;;;;5110023;28;20052;-67
2023/12/11 03:42:09;;;;;;;20.48;3.30;;;10.70;99.90;;;;;;5110876;28;20083;-67
2023/12/11 03:44:35;;;;;;;0.45;0.45;;;11.90;99.90;;;;;;5109734;28;20039;-66
2023/12/11 03:47:01;;;;;;;1.30;1.05;;;9.80;99.90;;;;;;5110628;28;20040;-66
2023/12/11 03:49:27;;;;;;;2.38;1.13;;;9.10;99.90;;;;;;5111173;28;20051;-67
2023/12/11 03:51:53;;;;;;;0.45;0.38;;;8.60;99.90;;;;;;5114472;28;20044;-65
2023/12/11 03:54:19;;;;;;;3.83;1.42;;;8.40;99.90;;;;;;5112356;28;20057;-66
2023/12/11 03:56:45;;;;;;;1.33;1.00;;;8.50;99.90;;;;;;5114123;28;20043;-67
2023/12/11 03:59:14;;;;;;;2.15;1.17;;;7.70;99.90;;;;;;5112378;28;20039;-67
2023/12/11 04:01:40;;;;;;;0.30;0.30;;;5.60;99.90;;;;;;5113147;28;20055;-68
2023/12/11 04:04:06;;;;;;;6.35;1.13;;;11.20;99.90;;;;;;5113114;28;20051;-67
2023/12/11 04:06:31;;;;;;;3.78;1.10;;;11.70;99.90;;;;;;5113071;28;20425;-66
2023/12/11 04:08:57;;;;;;;0.65;0.60;;;10.70;99.90;;;;;;5112939;28;20047;-67
2023/12/11 04:11:23;;;;;;;4.88;4.20;;;11.80;99.90;;;;;;5112830;28;20043;-67
2023/12/11 04:13:48;;;;;;;0.88;0.30;;;11.20;99.90;;;;;;5112997;28;20563;-66
2023/12/11 04:16:14;;;;;;;2.60;1.08;;;9.30;99.90;;;;;;5113480;28;20123;-65
2023/12/11 04:18:41;;;;;;;0.82;0.55;;;11.10;99.90;;;;;;5111680;28;20044;-65
2023/12/11 04:21:06;;;;;;;0.30;0.30;;;5.50;99.90;;;;;;5113135;27;20058;-66
2023/12/11 04:23:33;;;;;;;0.40;0.40;;;7.70;99.90;;;;;;5111752;28;20130;-67
2023/12/11 04:25:59;;;;;;;;;;;11.80;99.90;;;;;;5112829;28;20126;-68
2023/12/11 04:28:28;;;;;;;0.20;0.20;;;11.20;99.90;;;;;;5111466;28;20007;-65
2023/12/11 04:30:54;;;;;;;1.92;0.55;;;10.70;99.90;;;;;;5111881;28;20146;-66
2023/12/11 04:33:20;;;;;;;0.55;0.55;;;10.60;99.90;;;;;;5112462;28;20114;-65
2023/12/11 04:35:45;;;;;;;1.63;1.25;;;5.40;99.90;;;;;;5113075;28;20047;-65
2023/12/11 04:38:11;;;;;;;1.10;0.98;;;7.10;99.90;;;;;;5093784;28;20051;-66
2023/12/11 04:40:37;;;;;;;0.20;0.20;;;5.50;99.90;;;;;;5093659;28;20040;-65
2023/12/11 04:43:03;;;;;;;0.98;0.68;;;5.20;99.90;;;;;;5093385;28;20048;-66
2023/12/11 04:45:28;;;;;;;1.67;0.85;;;5.70;99.90;;;;;;5094048;28;20048;-65
2023/12/11 04:47:54;;;;;;;1.88;0.85;;;11.30;99.90;;;;;;5093496;28;20808;-65
2023/12/11 04:50:20;;;;;;;1.25;0.70;;;11.80;99.90;;;;;;5093800;28;20479;-67
2023/12/11 04:52:45;;;;;;;2.70;1.10;;;8.70;99.90;;;;;;5093792;28;20040;-65
2023/12/11 04:55:11;;;;;;;0.52;0.52;;;11.80;99.90;;;;;;5093475;28;20044;-66
2023/12/11 04:57:37;;;;;;;0.20;0.20;;;10.70;99.90;;;;;;5093663;28;20058;-65
2023/12/11 05:00:04;;;;;;;3.83;0.85;;;5.60;99.90;;;;;;5093821;28;20063;-65
2023/12/11 05:02:30;;;;;;;2.05;1.95;;;7.70;99.90;;;;;;5093138;28;20056;-67
2023/12/11 05:04:56;;;;;;;6.35;1.13;;;11.50;99.90;;;;;;5093459;28;20054;-68
2023/12/11 05:07:22;;;;;;;6.80;1.02;;;5.70;99.90;;;;;;5093762;28;20127;-66
2023/12/11 05:09:47;;;;;;;0.25;0.25;;;7.80;99.90;;;;;;5093745;28;20050;-65
2023/12/11 05:12:13;;;;;;;0.68;0.68;;;6.30;99.90;;;;;;5093429;27;20085;-66
2023/12/11 05:14:39;;;;;;;6.95;0.98;;;12.10;99.90;;;;;;5093844;28;20044;-65
2023/12/11 05:17:05;;;;;;;3.50;1.40;;;11.70;99.90;;;;;;5093108;28;20555;-65
2023/12/11 05:19:30;;;;;;;0.40;0.40;;;11.60;99.90;;;;;;5093713;28;20054;-66
2023/12/11 05:21:58;;;;;;;1.45;1.45;;;5.30;99.90;;;;;;5094270;28;20075;-65
2023/12/11 05:24:25;;;;;;;14.15;0.57;;;8.60;99.90;;;;;;5095003;28;20040;-65
2023/12/11 05:26:51;;;;;;;0.30;0.30;;;5.80;99.90;;;;;;5094215;28;20434;-65
2023/12/11 05:29:17;;;;;;;;;;;11.20;99.90;;;;;;5095266;28;20043;-65
2023/12/11 05:31:43;;;;;;;2.08;1.10;;;5.80;99.90;;;;;;5094170;28;19973;-67
2023/12/11 05:34:08;;;;;;;0.10;0.10;;;5.80;99.90;;;;;;5094586;28;20108;-67
2023/12/11 05:36:34;;;;;;;0.30;0.30;;;11.00;99.90;;;;;;5112246;27;20122;-66
2023/12/11 05:39:00;;;;;;;1.20;0.98;;;10.70;99.90;;;;;;5112887;28;20040;-65
2023/12/11 05:41:26;;;;;;;2.20;1.35;;;10.20;99.90;;;;;;5106270;28;20059;-65
2023/12/11 05:43:51;;;;;;;0.20;0.20;;;8.00;99.90;;;;;;5092853;28;20055;-65
2023/12/11 05:46:17;;;;;;;17.13;1.33;;;5.50;99.90;;;;;;5092676;28;20044;-66
2023/12/11 05:48:43;;;;;;;4.00;0.80;;;6.60;99.90;;;;;;5092680;28;20048;-66
2023/12/11 05:51:09;;;;;;;6.05;1.13;;;11.10;99.90;;;;;;5092111;28;20537;-67
2023/12/11 05:53:34;;;;;;;1.17;0.95;;;6.40;99.90;;;;;;5092951;28;20072;-68
2023/12/11 05:56:00;;;;;;;0.32;0.32;;;8.40;99.90;;;;;;5092918;28;20093;-66
2023/12/11 05:58:26;;;;;;;8.07;2.17;;;11.40;99.90;;;;;;5092369;28;20116;-66
2023/12/11 06:00:51;;;;;;;0.60;0.45;;;5.60;99.90;;;;;;5092496;28;20043;-66
2023/12/11 06:03:17;;;;;;;0.32;0.32;;;7.90;99.90;;;;;;5092485;28;20063;-65
2023/12/11 06:05:43;;;;;;;0.55;0.50;;;11.00;99.90;;;;;;5092350;28;20484;-66
2023/12/11 06:08:09;;;;;;;0.75;0.75;;;7.20;99.90;;;;;;5092026;28;20137;-66
2023/12/11 06:10:35;;;;;;;1.00;0.70;;;7.10;99.90;;;;;;5097988;28;20047;-67
2023/12/11 06:13:00;;;;;;;0.47;0.47;;;10.90;99.90;;;;;;5111735;27;20050;-66
2023/12/11 06:15:26;;;;;;;23.92;2.85;;;8.10;99.90;;;;;;5111471;28;20429;-68
2023/12/11 06:17:52;;;;;;;0.40;0.40;;;11.80;99.90;;;;;;5111780;28;20441;-65
2023/12/11 06:20:18;;;;;;;0.50;0.50;;;5.60;99.90;;;;;;5105439;28;20047;-65
2023/12/11 06:22:47;;;;;;;1.63;1.05;;;11.60;99.90;;;;;;5104646;28;20101;-65
2023/12/11 06:25:13;;;;;;;1.48;0.55;;;11.00;99.90;;;;;;5110845;28;20044;-65
2023/12/11 06:27:38;;;;;;;0.98;0.40;;;7.40;99.90;;;;;;5111258;28;20062;-65
2023/12/11 06:30:07;;;;;;;1.05;0.95;;;11.80;99.90;;;;;;5110590;28;20046;-66
2023/12/11 06:32:33;;;;;;;1.45;0.55;;;11.90;99.90;;;;;;5111036;28;20530;-66
2023/12/11 06:34:59;;;;;;;0.20;0.20;;;9.70;99.90;;;;;;5085216;28;20070;-67
2023/12/11 06:37:25;;;;;;;0.82;0.65;;;11.90;99.90;;;;;;5111435;28;20502;-66
2023/12/11 06:39:50;;;;;;;0.15;0.15;;;11.00;99.90;;;;;;5110841;28;20048;-66
2023/12/11 06:42:16;;;;;;;0.30;0.25;;;9.50;99.90;;;;;;5111684;28;20039;-66
2023/12/11 06:44:42;;;;;;;0.38;0.38;;;6.50;99.90;;;;;;5111093;28;20043;-66
2023/12/11 06:47:09;;;;;;;0.30;0.30;;;11.10;99.90;;;;;;5111539;28;20433;-66
2023/12/11 06:49:36;;;;;;;0.10;0.10;;;11.40;99.90;;;;;;5110888;28;20096;-66
2023/12/11 06:52:03;;;;;;;0.30;0.30;;;5.90;99.90;;;;;;5110582;28;20048;-66
2023/12/11 06:54:28;;;;;;;3.30;1.73;;;5.90;99.90;;;;;;5085286;28;20043;-66
2023/12/11 06:56:54;;;;;;;0.50;0.47;;;11.20;99.90;;;;;;5110475;28;20052;-67
2023/12/11 06:59:20;;;;;;;0.30;0.30;;;5.80;99.90;;;;;;5085514;28;20081;-66
2023/12/11 07:01:46;;;;;;;2.33;1.38;;;11.20;99.90;;;;;;5109990;28;20466;-67
2023/12/11 07:04:11;;;;;;;1.80;0.88;;;6.30;99.90;;;;;;5111472;28;20177;-66
2023/12/11 07:06:37;;;;;;;1.45;0.75;;;8.20;99.90;;;;;;5111006;28;20059;-68
2023/12/11 07:09:03;;;;;;;0.10;0.10;;;6.30;99.90;;;;;;5111132;28;20433;-68
2023/12/11 07:11:28;;;;;;;3.17;1.45;;;11.70;99.90;;;;;;5110615;28;20043;-66
2023/12/11 07:13:54;;;;;;;8.52;0.63;;;7.20;99.90;;;;;;5110880;28;20047;-66
2023/12/11 07:16:20;;;;;;;0.40;0.40;;;7.40;99.90;;;;;;5097864;28;20458;-72
2023/12/11 07:18:45;;;;;;;1.23;0.47;;;7.90;99.90;;;;;;5090934;28;20044;-66
2023/12/11 07:21:12;;;;;;;0.30;0.30;;;6.40;99.90;;;;;;5091313;28;20044;-68
2023/12/11 07:23:38;;;;;;;0.13;0.13;;;5.80;99.90;;;;;;5091740;28;20499;-66
2023/12/11 07:26:08;;;;;;;3.70;0.55;;;5.30;99.90;;;;;;5095314;28;20131;-72
2023/12/11 07:28:37;;;;;;;0.60;0.55;;;6.40;99.90;;;;;;5082124;28;20595;-69
2023/12/11 07:31:05;;;;;;;0.60;0.40;;;11.90;99.90;;;;;;5094882;28;20533;-66
2023/12/11 07:33:31;;;;;;;8.10;0.73;;;6.00;99.90;;;;;;5093989;28;20062;-66
2023/12/11 07:35:57;;;;;;;0.85;0.85;;;9.20;99.90;;;;;;5103961;28;20507;-66
2023/12/11 07:38:25;;;;;;;0.32;0.32;;;5.70;99.90;;;;;;5115406;28;20101;-66
2023/12/11 07:40:55;;;;;;;2.30;0.30;;;7.50;99.90;;;;;;5113360;28;20495;-66
2023/12/11 07:43:21;;;;;;;0.30;0.30;;;6.90;99.90;;;;;;5104113;28;20046;-65
2023/12/11 07:45:46;;;;;;;0.88;0.65;;;5.90;99.90;;;;;;5114755;28;20479;-66
2023/12/11 07:48:12;;;;;;;0.22;0.22;;;8.60;99.90;;;;;;5114786;28;20043;-65
2023/12/11 07:50:39;;;;;;;1.15;1.15;;;8.50;99.90;;;;;;5114053;27;20047;-66
2023/12/11 07:53:05;;;;;;;1.23;1.13;;;11.70;99.90;;;;;;5114159;28;20056;-66
2023/12/11 07:55:30;;;;;;;1.88;1.30;;;10.60;99.90;;;;;;5105467;28;20102;-67
2023/12/11 07:57:57;;;;;;;0.52;0.52;;;11.20;99.90;;;;;;5110467;28;20051;-66
2023/12/11 08:00:22;;;;;;;0.10;0.10;;;9.30;99.90;;;;;;5103096;28;20105;-66
2023/12/11 08:02:48;;;;;;;0.15;0.15;;;11.60;99.90;;;;;;5103233;28;20480;-66
2023/12/11 08:05:14;;;;;;;0.10;0.10;;;7.80;99.90;;;;;;5081526;28;20097;-65
2023/12/11 08:07:40;;;;;;;0.30;0.30;;;5.80;99.90;;;;;;5096968;28;20039;-66
2023/12/11 08:10:06;;;;;;;3.75;0.52;;;8.30;99.90;;;;;;5104451;28;20054;-66
2023/12/11 08:12:32;;;;;;;0.22;0.22;;;7.40;99.90;;;;;;5105945;28;20044;-67
2023/12/11 08:14:58;;;;;;;0.10;0.10;;;6.20;99.90;;;;;;5105957;28;20047;-65
2023/12/11 08:17:24;;;;;;;0.98;0.40;;;12.30;99.90;;;;;;5092401;28;20605;-65
2023/12/11 08:19:50;;;;;;;0.10;0.10;;;6.20;99.90;;;;;;5088444;28;20174;-65
2023/12/11 08:22:16;;;;;;;4.32;0.50;;;11.90;99.90;;;;;;5099182;27;20813;-66
2023/12/11 08:24:42;;;;;;;3.13;0.43;;;5.40;99.90;;;;;;5105518;28;20143;-67
2023/12/11 08:27:08;;;;;;;;;;;12.40;99.90;;;;;;5110963;28;20048;-67
2023/12/11 08:29:37;;;;;;;1.38;1.27;;;6.70;99.90;;;;;;5096229;27;20007;-67
2023/12/11 08:32:03;;;;;;;0.30;0.30;;;11.00;99.90;;;;;;5100635;28;20511;-67
2023/12/11 08:34:29;;;;;;;0.30;0.30;;;11.90;99.90;;;;;;5100347;28;20499;-67
2023/12/11 08:36:55;;;;;;;0.25;0.25;;;10.90;99.90;;;;;;5114040;28;20135;-67
2023/12/11 08:39:21;;;;;;;0.20;0.20;;;11.20;99.90;;;;;;5110913;28;20050;-67
2023/12/11 08:41:48;;;;;;;0.63;0.63;;;6.50;99.90;;;;;;5103061;28;20055;-67
2023/12/11 08:44:15;;;;;;;0.20;0.20;;;6.60;99.90;;;;;;5113599;28;20433;-67
2023/12/11 08:46:40;;;;;;;1.65;1.10;;;5.60;99.90;;;;;;5097229;28;20037;-67
2023/12/11 08:49:06;;;;;;;0.43;0.43;;;11.80;99.90;;;;;;5085621;28;20101;-66
2023/12/11 08:51:33;;;;;;;0.17;0.17;;;11.20;99.90;;;;;;5099459;28;20097;-68
2023/12/11 08:53:58;;;;;;;1.08;0.75;;;5.80;99.90;;;;;;5103295;28;20774;-67
2023/12/11 08:56:24;;;;;;;3.75;0.55;;;8.10;99.90;;;;;;5105670;28;20044;-68
2023/12/11 08:58:51;;;;;;;2.90;1.55;;;6.50;99.90;;;;;;5103447;28;20047;-67
2023/12/11 09:01:17;;;;;;;2.17;2.08;;;10.80;99.90;;;;;;5104595;28;20048;-65
2023/12/11 09:03:44;;;;;;;0.10;0.10;;;8.80;99.90;;;;;;5089816;28;20531;-67
2023/12/11 09:06:10;;;;;;;0.73;0.73;;;6.50;99.90;;;;;;5103024;28;20397;-67
2023/12/11 09:08:36;;;;;;;0.43;0.43;;;11.40;99.90;;;;;;5084404;28;20047;-68
2023/12/11 09:11:02;;;;;;;0.10;0.10;;;11.60;99.90;;;;;;5083259;28;20369;-67
2023/12/11 09:13:28;;;;;;;1.25;0.38;;;6.10;99.90;;;;;;5095850;28;20040;-67
2023/12/11 09:15:54;;;;;;;2.22;0.85;;;6.10;99.90;;;;;;5093598;28;20047;-66
2023/12/11 09:18:19;;;;;;;5.55;1.70;;;12.00;99.90;;;;;;5096275;28;20040;-67
2023/12/11 09:20:45;;;;;;;0.25;0.25;;;12.20;99.90;;;;;;5093915;28;20051;-67
2023/12/11 09:23:11;;;;;;;1.30;0.55;;;12.40;99.90;;;;;;5094844;28;20043;-70
2023/12/11 09:25:37;;;;;;;;;;;6.00;99.90;;;;;;5093158;28;20047;-68
2023/12/11 09:28:04;;;;;;;0.85;0.65;;;6.60;99.90;;;;;;5094867;28;19924;-67
2023/12/11 09:30:30;;;;;;;0.52;0.52;;;5.90;99.90;;;;;;5093361;28;20126;-68
2023/12/11 09:32:56;;;;;;;;;;;12.70;99.90;;;;;;5094373;28;20148;-67
2023/12/11 09:35:21;;;;;;;0.95;0.63;;;6.70;99.90;;;;;;5102142;28;19920;-68
2023/12/11 09:37:47;;;;;;;2.78;2.58;;;12.20;99.90;;;;;;5111624;28;20499;-68
2023/12/11 09:40:13;;;;;;;1.25;0.40;;;9.80;99.90;;;;;;5111413;28;20130;-67
2023/12/11 09:42:43;;;;;;;1.75;0.63;;;10.90;99.90;;;;;;5088896;28;20035;-68
2023/12/11 09:45:11;;;;;;;1.00;0.68;;;11.40;99.90;;;;;;5098801;28;20051;-68
2023/12/11 09:47:47;;;;;;;0.10;0.10;;;10.70;99.90;;;;;;5103744;28;20047;-67
2023/12/11 09:50:13;;;;;;;0.70;0.30;;;11.00;99.90;;;;;;5103993;28;20105;-67
2023/12/11 09:52:42;;;;;;;;;;;6.00;99.90;;;;;;5107124;28;20103;-68
2023/12/11 09:55:08;;;;;;;1.58;1.08;;;7.60;99.90;;;;;;5103453;28;19919;-68
2023/12/11 09:57:37;;;;;;;3.20;0.82;;;8.20;99.90;;;;;;5106393;28;20048;-69
2023/12/11 10:00:04;;;;;;;0.20;0.20;;;12.00;99.90;;;;;;5102701;28;20163;-68
2023/12/11 10:02:30;;;;;;;0.70;0.70;;;11.00;99.90;;;;;;5089122;28;20059;-68
2023/12/11 10:05:10;;;;;;;0.38;0.28;;;6.10;99.90;;;;;;5101132;28;20078;-67
2023/12/11 10:07:37;;;;;;;5.47;0.40;;;6.50;99.90;;;;;;5100176;28;20059;-67
2023/12/11 10:10:25;;;;;;;0.20;0.20;;;5.60;99.90;;;;;;5097131;28;20056;-66
2023/12/11 10:12:53;;;;;;;0.95;0.65;;;11.30;99.90;;;;;;5086181;28;20059;-67
2023/12/11 10:15:24;;;;;;;0.52;0.52;;;10.10;99.90;;;;;;5090484;28;20112;-67
2023/12/11 10:18:08;;;;;;;0.35;0.35;;;8.50;99.90;;;;;;5109871;28;20452;-67
2023/12/11 10:20:35;;;;;;;4.20;1.80;;;8.10;99.90;;;;;;5090657;28;20100;-67
2023/12/11 10:23:12;;;;;;;1.75;0.63;;;12.10;99.90;;;;;;5109043;28;20050;-67
2023/12/11 10:25:41;;;;;;;1.52;1.45;;;11.00;99.90;;;;;;5110562;28;20503;-67
2023/12/11 10:28:10;;;;;;;0.50;0.50;;;6.00;99.90;;;;;;5109067;28;20047;-67
2023/12/11 10:30:59;;;;;;;0.25;0.25;;;8.60;99.90;;;;;;5110735;28;20126;-67
2023/12/11 10:33:27;;;;;;;0.13;0.13;;;7.00;99.90;;;;;;5088402;28;20395;-67
2023/12/11 10:36:15;;;;;;;7.25;4.07;;;10.70;99.90;;;;;;5109844;28;20130;-66
2023/12/11 10:38:42;;;;;;;0.22;0.22;;;11.80;99.90;;;;;;5111358;28;20040;-67
2023/12/11 10:41:23;;;;;;;0.57;0.25;;;11.40;99.90;;;;;;5107179;28;20438;-67
2023/12/11 10:43:49;;;;;;;0.25;0.25;;;10.90;99.90;;;;;;5091595;28;20052;-67
2023/12/11 10:46:15;;;;;;;3.83;1.20;;;6.70;99.90;;;;;;5091467;28;20476;-66
2023/12/11 10:48:41;;;;;;;0.32;0.32;;;12.30;99.90;;;;;;5091463;28;20052;-67
2023/12/11 10:51:07;;;;;;;0.13;0.13;;;11.80;99.90;;;;;;5091977;28;20040;-67
2023/12/11 10:53:35;;;;;;;0.40;0.40;;;10.30;99.90;;;;;;5091649;28;20040;-67
2023/12/11 10:56:02;;;;;;;7.35;1.38;;;7.40;99.90;;;;;;5092458;28;20040;-67
2023/12/11 10:58:28;;;;;;;1.45;0.90;;;11.20;99.90;;;;;;5091053;28;20048;-67
2023/12/11 11:01:00;;;;;;;0.52;0.50;;;11.80;99.90;;;;;;5092628;28;20047;-67
2023/12/11 11:03:27;;;;;;;0.73;0.60;;;8.10;99.90;;;;;;5091281;28;20117;-68
2023/12/11 11:05:54;;;;;;;0.10;0.10;;;11.90;99.90;;;;;;5091503;28;20056;-67
2023/12/11 11:08:41;;;;;;;2.00;1.88;;;7.60;99.90;;;;;;5091534;28;20052;-66
2023/12/11 11:11:10;;;;;;;;;;;9.50;99.90;;;;;;5100447;28;20055;-68
2023/12/11 11:14:00;;;;;;;0.28;0.28;;;8.20;99.90;;;;;;5107186;28;19927;-66
2023/12/11 11:16:55;;;;;;;1.35;0.20;;;8.10;99.90;;;;;;5091547;28;20048;-67
2023/12/11 11:19:22;;;;;;;0.30;0.30;;;11.60;99.90;;;;;;5106095;28;20085;-67
2023/12/11 11:22:08;;;;;;;1.58;0.45;;;9.70;99.90;;;;;;5092970;28;20043;-67
2023/12/11 11:24:35;;;;;;;2.22;0.95;;;11.20;99.90;;;;;;5091125;28;20427;-67
2023/12/11 11:27:02;;;;;;;2.50;0.20;;;7.70;99.90;;;;;;5098352;28;20048;-66
2023/12/11 11:29:45;;;;;;;3.20;0.20;;;11.40;99.90;;;;;;5110782;28;20056;-67
2023/12/11 11:32:12;;;;;;;2.50;2.35;;;8.20;99.90;;;;;;5111011;28;20480;-65
2023/12/11 11:34:40;;;;;;;0.93;0.88;;;9.30;99.90;;;;;;5110683;28;20058;-66
2023/12/11 11:37:09;;;;;;;0.45;0.45;;;9.80;99.90;;;;;;5111324;28;20043;-65
2023/12/11 11:40:02;;;;;;;0.40;0.40;;;9.30;99.90;;;;;;5109469;28;20047;-67
2023/12/11 11:42:34;;;;;;;0.30;0.30;;;11.00;99.90;;;;;;5109314;28;20108;-67
2023/12/11 11:45:02;;;;;;;1.00;1.00;;;10.80;99.90;;;;;;5102244;28;20048;-67
2023/12/11 11:47:29;;;;;;;5.25;0.43;;;10.00;99.90;;;;;;5090794;28;20085;-67
2023/12/11 11:50:04;;;;;;;0.50;0.50;;;9.80;99.90;;;;;;5091156;28;20062;-67
2023/12/11 11:52:30;;;;;;;0.20;0.20;;;9.50;99.90;;;;;;5090262;28;20404;-67
2023/12/11 11:55:05;;;;;;;0.10;0.10;;;8.10;99.90;;;;;;5091065;28;20040;-65
2023/12/11 11:57:32;;;;;;;0.90;0.35;;;11.10;99.90;;;;;;5096165;28;20044;-66
2023/12/11 11:59:58;;;;;;;0.10;0.10;;;8.00;99.90;;;;;;5098729;28;20052;-67
2023/12/11 12:02:24;;;;;;;3.38;0.80;;;7.70;99.90;;;;;;5090884;28;20113;-65
2023/12/11 12:04:50;;;;;;;;;;;8.80;99.90;;;;;;5091397;28;20192;-66
2023/12/11 12:07:16;;;;;;;0.20;0.20;;;9.70;99.90;;;;;;5090622;28;19923;-65
2023/12/11 12:09:42;;;;;;;;;;;8.30;99.90;;;;;;5091998;28;20039;-67
2023/12/11 12:12:14;;;;;;;0.10;0.10;;;7.70;99.90;;;;;;5094313;28;20616;-66
2023/12/11 12:14:40;;;;;;;0.25;0.25;;;10.60;99.90;;;;;;5094500;28;20058;-67
2023/12/11 12:17:10;;;;;;;1.00;0.40;;;9.50;99.90;;;;;;5099230;28;20127;-66
2023/12/11 12:19:36;;;;;;;0.25;0.25;;;10.80;99.90;;;;;;5113858;28;20076;-66
2023/12/11 12:22:02;;;;;;;8.82;0.57;;;8.70;99.90;;;;;;5114364;28;20078;-67
2023/12/11 12:24:29;;;;;;;;;;;9.10;99.90;;;;;;5100562;28;20043;-67
2023/12/11 12:27:00;;;;;;;0.47;0.40;;;10.90;99.90;;;;;;5093970;28;19963;-66
2023/12/11 12:29:28;;;;;;;0.20;0.20;;;10.40;99.90;;;;;;5094477;28;20051;-66
2023/12/11 12:31:54;;;;;;;0.40;0.40;;;10.40;99.90;;;;;;5094332;28;20055;-67
2023/12/11 12:34:20;;;;;;;4.18;0.57;;;10.60;99.90;;;;;;5094972;28;20080;-66
2023/12/11 12:36:46;;;;;;;;;;;10.80;99.90;;;;;;5114233;28;20048;-66
2023/12/11 12:39:13;;;;;;;1.05;0.68;;;6.50;99.90;;;;;;5113600;28;19924;-66
2023/12/11 12:41:38;;;;;;;0.63;0.63;;;6.60;99.90;;;;;;5110393;28;20044;-66
2023/12/11 12:44:04;;;;;;;0.13;0.13;;;10.60;99.90;;;;;;5110859;28;20498;-66
2023/12/11 12:46:43;;;;;;;0.20;0.20;;;8.20;99.90;;;;;;5101698;28;20039;-66
2023/12/11 12:49:09;;;;;;;0.20;0.20;;;6.50;99.90;;;;;;5097069;28;20078;-66
2023/12/11 12:51:50;;;;;;;0.10;0.10;;;9.70;99.90;;;;;;5103193;28;20114;-65
2023/12/11 12:54:17;;;;;;;1.08;0.47;;;10.70;99.90;;;;;;5100141;28;20100;-66
2023/12/11 12:56:44;;;;;;;11.40;0.75;;;11.70;99.90;;;;;;5113774;28;20082;-67
2023/12/11 12:59:10;;;;;;;0.10;0.10;;;10.90;99.90;;;;;;5112921;28;20514;-67